sensor_id;sensor_type;location;lat;lon;timestamp;temperature;humidity
44229;DHT22;29904;51.058;5.378;2024-01-27T00:00:17;0.50;99.90
44229;DHT22;29904;51.058;5.378;2024-01-27T00:02:43;0.50;99.90
44229;DHT22;29904;51.058;5.378;2024-01-27T00:05:08;0.50;99.90
44229;DHT22;29904;51.058;5.378;2024-01-27T00:07:34;0.50;99.90
44229;DHT22;29904;51.058;5.378;2024-01-27T00:09:59;0.50;99.90
44229;DHT22;29904;51.058;5.378;2024-01-27T00:12:27;0.50;99.90
44229;DHT22;29904;51.058;5.378;2024-01-27T00:14:52;0.50;99.90
44229;DHT22;29904;51.058;5.378;2024-01-27T00:17:18;0.60;99.90
44229;DHT22;29904;51.058;5.378;2024-01-27T00:19:49;0.50;99.90
44229;DHT22;29904;51.058;5.378;2024-01-27T00:22:15;0.50;99.90
44229;DHT22;29904;51.058;5.378;2024-01-27T00:24:42;0.50;99.90
44229;DHT22;29904;51.058;5.378;2024-01-27T00:27:08;0.60;99.90
44229;DHT22;29904;51.058;5.378;2024-01-27T00:29:33;0.50;99.90
44229;DHT22;29904;51.058;5.378;2024-01-27T00:31:59;0.50;99.90
44229;DHT22;29904;51.058;5.378;2024-01-27T00:34:24;0.50;99.90
44229;DHT22;29904;51.058;5.378;2024-01-27T00:36:51;0.50;99.90
44229;DHT22;29904;51.058;5.378;2024-01-27T00:39:16;0.50;99.90
44229;DHT22;29904;51.058;5.378;2024-01-27T00:41:42;0.50;99.90
44229;DHT22;29904;51.058;5.378;2024-01-27T00:44:08;0.50;99.90
44229;DHT22;29904;51.058;5.378;2024-01-27T00:46:34;0.50;99.90
44229;DHT22;29904;51.058;5.378;2024-01-27T00:48:59;0.40;99.90
44229;DHT22;29904;51.058;5.378;2024-01-27T00:51:25;0.40;99.90
44229;DHT22;29904;51.058;5.378;2024-01-27T00:53:50;0.40;99.90
44229;DHT22;29904;51.058;5.378;2024-01-27T00:56:16;0.30;99.90
44229;DHT22;29904;51.058;5.378;2024-01-27T00:58:42;0.30;99.90
44229;DHT22;29904;51.058;5.378;2024-01-27T01:01:07;0.30;99.90
44229;DHT22;29904;51.058;5.378;2024-01-27T01:03:33;0.30;99.90
44229;DHT22;29904;51.058;5.378;2024-01-27T01:05:58;0.20;99.90
44229;DHT22;29904;51.058;5.378;2024-01-27T01:08:24;0.20;99.90
44229;DHT22;29904;51.058;5.378;2024-01-27T01:10:49;0.20;99.90
44229;DHT22;29904;51.058;5.378;2024-01-27T01:13:15;0.20;99.90
44229;DHT22;29904;51.058;5.378;2024-01-27T01:15:40;0.10;99.90
44229;DHT22;29904;51.058;5.378;2024-01-27T01:18:06;0.20;99.90
44229;DHT22;29904;51.058;5.378;2024-01-27T01:20:32;0.10;99.90
44229;DHT22;29904;51.058;5.378;2024-01-27T01:22:58;0.10;99.90
44229;DHT22;29904;51.058;5.378;2024-01-27T01:25:23;0.10;99.90
44229;DHT22;29904;51.058;5.378;2024-01-27T01:27:49;0.00;99.90
44229;DHT22;29904;51.058;5.378;2024-01-27T01:30:15;0.00;99.90
44229;DHT22;29904;51.058;5.378;2024-01-27T01:32:42;0.00;99.90
44229;DHT22;29904;51.058;5.378;2024-01-27T01:35:08;-0.10;99.90
44229;DHT22;29904;51.058;5.378;2024-01-27T01:37:35;-0.10;99.90
44229;DHT22;29904;51.058;5.378;2024-01-27T01:40:00;-0.10;99.90
44229;DHT22;29904;51.058;5.378;2024-01-27T01:42:26;-0.10;99.90
44229;DHT22;29904;51.058;5.378;2024-01-27T01:44:51;-0.10;99.90
44229;DHT22;29904;51.058;5.378;2024-01-27T01:47:17;-0.10;99.90
44229;DHT22;29904;51.058;5.378;2024-01-27T01:49:43;-0.10;99.90
44229;DHT22;29904;51.058;5.378;2024-01-27T01:52:09;-0.10;99.90
44229;DHT22;29904;51.058;5.378;2024-01-27T01:54:35;0.00;99.90
44229;DHT22;29904;51.058;5.378;2024-01-27T01:57:01;0.00;99.90
44229;DHT22;29904;51.058;5.378;2024-01-27T01:59:27;0.00;99.90
44229;DHT22;29904;51.058;5.378;2024-01-27T02:01:52;0.00;99.90
44229;DHT22;29904;51.058;5.378;2024-01-27T02:04:18;-0.10;99.90
44229;DHT22;29904;51.058;5.378;2024-01-27T02:06:44;-0.10;99.90
44229;DHT22;29904;51.058;5.378;2024-01-27T02:09:09;-0.10;99.90
44229;DHT22;29904;51.058;5.378;2024-01-27T02:11:35;0.00;99.90
44229;DHT22;29904;51.058;5.378;2024-01-27T02:14:00;0.00;99.90
44229;DHT22;29904;51.058;5.378;2024-01-27T02:16:26;0.00;99.90
44229;DHT22;29904;51.058;5.378;2024-01-27T02:18:52;-0.10;99.90
44229;DHT22;29904;51.058;5.378;2024-01-27T02:21:17;-0.10;99.90
44229;DHT22;29904;51.058;5.378;2024-01-27T02:23:43;-0.20;99.90
44229;DHT22;29904;51.058;5.378;2024-01-27T02:26:08;-0.20;99.90
44229;DHT22;29904;51.058;5.378;2024-01-27T02:28:34;-0.20;99.90
44229;DHT22;29904;51.058;5.378;2024-01-27T02:31:00;-0.20;99.90
44229;DHT22;29904;51.058;5.378;2024-01-27T02:33:26;-0.20;99.90
44229;DHT22;29904;51.058;5.378;2024-01-27T02:35:51;-0.10;99.90
44229;DHT22;29904;51.058;5.378;2024-01-27T02:38:17;-0.20;99.90
44229;DHT22;29904;51.058;5.378;2024-01-27T02:40:43;-0.20;99.90
44229;DHT22;29904;51.058;5.378;2024-01-27T02:43:08;-0.20;99.90
44229;DHT22;29904;51.058;5.378;2024-01-27T02:45:34;-0.20;99.90
44229;DHT22;29904;51.058;5.378;2024-01-27T02:47:59;-0.20;99.90
44229;DHT22;29904;51.058;5.378;2024-01-27T02:50:25;-0.20;99.90
44229;DHT22;29904;51.058;5.378;2024-01-27T02:52:50;-0.10;99.90
44229;DHT22;29904;51.058;5.378;2024-01-27T02:55:16;-0.10;99.90
44229;DHT22;29904;51.058;5.378;2024-01-27T02:57:41;-0.10;99.90
44229;DHT22;29904;51.058;5.378;2024-01-27T03:00:07;-0.20;99.90
44229;DHT22;29904;51.058;5.378;2024-01-27T03:02:33;-0.20;99.90
44229;DHT22;29904;51.058;5.378;2024-01-27T03:04:59;-0.20;99.90
44229;DHT22;29904;51.058;5.378;2024-01-27T03:07:25;-0.20;99.90
44229;DHT22;29904;51.058;5.378;2024-01-27T03:09:50;-0.30;99.90
44229;DHT22;29904;51.058;5.378;2024-01-27T03:12:16;-0.30;99.90
44229;DHT22;29904;51.058;5.378;2024-01-27T03:14:43;-0.40;99.90
44229;DHT22;29904;51.058;5.378;2024-01-27T03:17:09;-0.40;99.90
44229;DHT22;29904;51.058;5.378;2024-01-27T03:19:34;-0.40;99.90
44229;DHT22;29904;51.058;5.378;2024-01-27T03:22:00;-0.40;99.90
44229;DHT22;29904;51.058;5.378;2024-01-27T03:24:25;-0.30;99.90
44229;DHT22;29904;51.058;5.378;2024-01-27T03:26:51;-0.30;99.90
44229;DHT22;29904;51.058;5.378;2024-01-27T03:29:16;-0.30;99.90
44229;DHT22;29904;51.058;5.378;2024-01-27T03:31:42;-0.30;99.90
44229;DHT22;29904;51.058;5.378;2024-01-27T03:34:07;-0.20;99.90
44229;DHT22;29904;51.058;5.378;2024-01-27T03:36:33;-0.20;99.90
44229;DHT22;29904;51.058;5.378;2024-01-27T03:38:59;-0.30;99.90
44229;DHT22;29904;51.058;5.378;2024-01-27T03:41:24;-0.20;99.90
44229;DHT22;29904;51.058;5.378;2024-01-27T03:43:50;-0.20;99.90
44229;DHT22;29904;51.058;5.378;2024-01-27T03:46:15;-0.20;99.90
44229;DHT22;29904;51.058;5.378;2024-01-27T03:48:41;-0.20;99.90
44229;DHT22;29904;51.058;5.378;2024-01-27T03:51:07;-0.20;99.90
44229;DHT22;29904;51.058;5.378;2024-01-27T03:53:33;-0.20;99.90
44229;DHT22;29904;51.058;5.378;2024-01-27T03:55:58;-0.20;99.90
44229;DHT22;29904;51.058;5.378;2024-01-27T03:58:27;-0.10;99.90
44229;DHT22;29904;51.058;5.378;2024-01-27T04:00:53;-0.20;99.90
44229;DHT22;29904;51.058;5.378;2024-01-27T04:03:18;-0.10;99.90
44229;DHT22;29904;51.058;5.378;2024-01-27T04:05:44;-0.20;99.90
44229;DHT22;29904;51.058;5.378;2024-01-27T04:08:09;-0.10;99.90
44229;DHT22;29904;51.058;5.378;2024-01-27T04:10:36;-0.10;99.90
44229;DHT22;29904;51.058;5.378;2024-01-27T04:13:01;-0.10;99.90
44229;DHT22;29904;51.058;5.378;2024-01-27T04:15:27;-0.10;99.90
44229;DHT22;29904;51.058;5.378;2024-01-27T04:17:52;-0.10;99.90
44229;DHT22;29904;51.058;5.378;2024-01-27T04:20:19;-0.20;99.90
44229;DHT22;29904;51.058;5.378;2024-01-27T04:22:45;-0.20;99.90
44229;DHT22;29904;51.058;5.378;2024-01-27T04:25:10;0.30;99.90
44229;DHT22;29904;51.058;5.378;2024-01-27T04:27:37;-0.20;99.90
44229;DHT22;29904;51.058;5.378;2024-01-27T04:30:04;-0.20;99.90
44229;DHT22;29904;51.058;5.378;2024-01-27T04:32:29;-0.20;99.90
44229;DHT22;29904;51.058;5.378;2024-01-27T04:34:55;-0.30;99.90
44229;DHT22;29904;51.058;5.378;2024-01-27T04:37:20;-0.30;99.90
44229;DHT22;29904;51.058;5.378;2024-01-27T04:39:46;-0.40;99.90
44229;DHT22;29904;51.058;5.378;2024-01-27T04:42:11;-0.40;99.90
44229;DHT22;29904;51.058;5.378;2024-01-27T04:44:39;-0.40;99.90
44229;DHT22;29904;51.058;5.378;2024-01-27T04:47:05;-0.40;99.90
44229;DHT22;29904;51.058;5.378;2024-01-27T04:49:31;-0.40;99.90
44229;DHT22;29904;51.058;5.378;2024-01-27T04:51:56;-0.40;99.90
44229;DHT22;29904;51.058;5.378;2024-01-27T04:54:22;-0.40;99.90
44229;DHT22;29904;51.058;5.378;2024-01-27T04:56:47;-0.40;99.90
44229;DHT22;29904;51.058;5.378;2024-01-27T04:59:13;-0.50;99.90
44229;DHT22;29904;51.058;5.378;2024-01-27T05:01:38;-0.50;99.90
44229;DHT22;29904;51.058;5.378;2024-01-27T05:04:04;-0.50;99.90
44229;DHT22;29904;51.058;5.378;2024-01-27T05:06:30;-0.50;99.90
44229;DHT22;29904;51.058;5.378;2024-01-27T05:08:55;-0.50;99.90
44229;DHT22;29904;51.058;5.378;2024-01-27T05:11:30;-0.50;99.90
44229;DHT22;29904;51.058;5.378;2024-01-27T05:13:56;-0.50;99.90
44229;DHT22;29904;51.058;5.378;2024-01-27T05:16:22;-0.50;99.90
44229;DHT22;29904;51.058;5.378;2024-01-27T05:18:47;-0.50;99.90
44229;DHT22;29904;51.058;5.378;2024-01-27T05:21:14;-0.50;99.90
44229;DHT22;29904;51.058;5.378;2024-01-27T05:23:39;-0.50;99.90
44229;DHT22;29904;51.058;5.378;2024-01-27T05:26:05;-0.50;99.90
44229;DHT22;29904;51.058;5.378;2024-01-27T05:28:31;-0.40;99.90
44229;DHT22;29904;51.058;5.378;2024-01-27T05:30:57;-0.40;99.90
44229;DHT22;29904;51.058;5.378;2024-01-27T05:33:22;-0.40;99.90
44229;DHT22;29904;51.058;5.378;2024-01-27T05:35:48;-0.40;99.90
44229;DHT22;29904;51.058;5.378;2024-01-27T05:38:13;-0.40;99.90
44229;DHT22;29904;51.058;5.378;2024-01-27T05:40:39;-0.40;99.90
44229;DHT22;29904;51.058;5.378;2024-01-27T05:43:04;-0.30;99.90
44229;DHT22;29904;51.058;5.378;2024-01-27T05:45:30;-0.30;99.90
44229;DHT22;29904;51.058;5.378;2024-01-27T05:47:56;-0.30;99.90
44229;DHT22;29904;51.058;5.378;2024-01-27T05:50:22;-0.30;99.90
44229;DHT22;29904;51.058;5.378;2024-01-27T05:52:47;-0.30;99.90
44229;DHT22;29904;51.058;5.378;2024-01-27T05:55:13;-0.30;99.90
44229;DHT22;29904;51.058;5.378;2024-01-27T05:57:39;-0.30;99.90
44229;DHT22;29904;51.058;5.378;2024-01-27T06:00:04;-0.30;99.90
44229;DHT22;29904;51.058;5.378;2024-01-27T06:02:30;-0.30;99.90
44229;DHT22;29904;51.058;5.378;2024-01-27T06:04:56;-0.30;99.90
44229;DHT22;29904;51.058;5.378;2024-01-27T06:07:21;-0.20;99.90
44229;DHT22;29904;51.058;5.378;2024-01-27T06:09:47;-0.20;99.90
44229;DHT22;29904;51.058;5.378;2024-01-27T06:12:12;-0.20;99.90
44229;DHT22;29904;51.058;5.378;2024-01-27T06:14:38;-0.10;99.90
44229;DHT22;29904;51.058;5.378;2024-01-27T06:17:04;0.00;99.90
44229;DHT22;29904;51.058;5.378;2024-01-27T06:19:30;-0.10;99.90
44229;DHT22;29904;51.058;5.378;2024-01-27T06:21:56;-0.10;99.90
44229;DHT22;29904;51.058;5.378;2024-01-27T06:24:22;-0.20;99.90
44229;DHT22;29904;51.058;5.378;2024-01-27T06:26:47;-0.20;99.90
44229;DHT22;29904;51.058;5.378;2024-01-27T06:29:13;-0.20;99.90
44229;DHT22;29904;51.058;5.378;2024-01-27T06:31:39;-0.20;99.90
44229;DHT22;29904;51.058;5.378;2024-01-27T06:34:05;-0.30;99.90
44229;DHT22;29904;51.058;5.378;2024-01-27T06:36:31;-0.20;99.90
44229;DHT22;29904;51.058;5.378;2024-01-27T06:38:57;-0.20;99.90
44229;DHT22;29904;51.058;5.378;2024-01-27T06:41:23;-0.20;99.90
44229;DHT22;29904;51.058;5.378;2024-01-27T06:43:48;-0.20;99.90
44229;DHT22;29904;51.058;5.378;2024-01-27T06:46:14;-0.20;99.90
44229;DHT22;29904;51.058;5.378;2024-01-27T06:48:40;-0.20;99.90
44229;DHT22;29904;51.058;5.378;2024-01-27T06:51:05;-0.20;99.90
44229;DHT22;29904;51.058;5.378;2024-01-27T06:53:31;-0.20;99.90
44229;DHT22;29904;51.058;5.378;2024-01-27T06:55:56;-0.20;99.90
44229;DHT22;29904;51.058;5.378;2024-01-27T06:58:22;-0.20;99.90
44229;DHT22;29904;51.058;5.378;2024-01-27T07:00:48;-0.20;99.90
44229;DHT22;29904;51.058;5.378;2024-01-27T07:03:13;-0.20;99.90
44229;DHT22;29904;51.058;5.378;2024-01-27T07:05:39;-0.20;99.90
44229;DHT22;29904;51.058;5.378;2024-01-27T07:08:06;-0.20;99.90
44229;DHT22;29904;51.058;5.378;2024-01-27T07:10:32;-0.20;99.90
44229;DHT22;29904;51.058;5.378;2024-01-27T07:12:57;-0.20;99.90
44229;DHT22;29904;51.058;5.378;2024-01-27T07:15:23;-0.20;99.90
44229;DHT22;29904;51.058;5.378;2024-01-27T07:17:49;-0.20;99.90
44229;DHT22;29904;51.058;5.378;2024-01-27T07:20:14;-0.20;99.90
44229;DHT22;29904;51.058;5.378;2024-01-27T07:22:40;-0.20;99.90
44229;DHT22;29904;51.058;5.378;2024-01-27T07:25:05;-0.10;99.90
44229;DHT22;29904;51.058;5.378;2024-01-27T07:27:32;-0.10;99.90
44229;DHT22;29904;51.058;5.378;2024-01-27T07:29:58;-0.10;99.90
44229;DHT22;29904;51.058;5.378;2024-01-27T07:32:23;-0.10;99.90
44229;DHT22;29904;51.058;5.378;2024-01-27T07:34:50;-0.10;99.90
44229;DHT22;29904;51.058;5.378;2024-01-27T07:37:15;-0.10;99.90
44229;DHT22;29904;51.058;5.378;2024-01-27T07:39:41;0.00;99.90
44229;DHT22;29904;51.058;5.378;2024-01-27T07:42:06;0.00;99.90
44229;DHT22;29904;51.058;5.378;2024-01-27T07:44:32;0.00;99.90
44229;DHT22;29904;51.058;5.378;2024-01-27T07:46:57;0.00;99.90
44229;DHT22;29904;51.058;5.378;2024-01-27T07:49:23;0.00;99.90
44229;DHT22;29904;51.058;5.378;2024-01-27T07:51:48;0.00;99.90
44229;DHT22;29904;51.058;5.378;2024-01-27T07:54:14;0.00;99.90
44229;DHT22;29904;51.058;5.378;2024-01-27T07:56:39;0.00;99.90
44229;DHT22;29904;51.058;5.378;2024-01-27T07:59:06;0.00;99.90
44229;DHT22;29904;51.058;5.378;2024-01-27T08:01:39;0.00;99.90
44229;DHT22;29904;51.058;5.378;2024-01-27T08:04:05;0.10;99.90
44229;DHT22;29904;51.058;5.378;2024-01-27T08:06:30;0.10;99.90
44229;DHT22;29904;51.058;5.378;2024-01-27T08:08:56;0.30;99.90
44229;DHT22;29904;51.058;5.378;2024-01-27T08:11:21;0.30;99.90
44229;DHT22;29904;51.058;5.378;2024-01-27T08:13:47;0.30;99.90
44229;DHT22;29904;51.058;5.378;2024-01-27T08:16:13;0.40;99.90
44229;DHT22;29904;51.058;5.378;2024-01-27T08:18:39;0.40;99.90
44229;DHT22;29904;51.058;5.378;2024-01-27T08:21:07;0.50;99.90
44229;DHT22;29904;51.058;5.378;2024-01-27T08:23:33;0.50;99.90
44229;DHT22;29904;51.058;5.378;2024-01-27T08:25:59;0.50;99.90
44229;DHT22;29904;51.058;5.378;2024-01-27T08:28:24;0.50;99.90
44229;DHT22;29904;51.058;5.378;2024-01-27T08:30:50;0.40;99.90
44229;DHT22;29904;51.058;5.378;2024-01-27T08:33:15;0.50;99.90
44229;DHT22;29904;51.058;5.378;2024-01-27T08:35:41;0.60;99.90
44229;DHT22;29904;51.058;5.378;2024-01-27T08:38:07;0.60;99.90
44229;DHT22;29904;51.058;5.378;2024-01-27T08:40:34;0.70;99.90
44229;DHT22;29904;51.058;5.378;2024-01-27T08:43:01;0.80;99.90
44229;DHT22;29904;51.058;5.378;2024-01-27T08:45:26;0.90;99.90
44229;DHT22;29904;51.058;5.378;2024-01-27T08:47:52;1.00;99.90
44229;DHT22;29904;51.058;5.378;2024-01-27T08:50:18;1.00;99.90
44229;DHT22;29904;51.058;5.378;2024-01-27T08:52:43;1.10;99.90
44229;DHT22;29904;51.058;5.378;2024-01-27T08:55:09;1.10;99.90
44229;DHT22;29904;51.058;5.378;2024-01-27T08:57:35;1.20;99.90
44229;DHT22;29904;51.058;5.378;2024-01-27T09:00:00;1.30;99.90
44229;DHT22;29904;51.058;5.378;2024-01-27T09:02:26;1.30;99.90
44229;DHT22;29904;51.058;5.378;2024-01-27T09:04:51;1.40;99.90
44229;DHT22;29904;51.058;5.378;2024-01-27T09:07:17;1.50;99.90
44229;DHT22;29904;51.058;5.378;2024-01-27T09:09:42;1.50;99.90
44229;DHT22;29904;51.058;5.378;2024-01-27T09:12:08;1.60;99.90
44229;DHT22;29904;51.058;5.378;2024-01-27T09:14:34;1.70;99.90
44229;DHT22;29904;51.058;5.378;2024-01-27T09:17:00;1.70;99.90
44229;DHT22;29904;51.058;5.378;2024-01-27T09:19:25;2.10;99.90
44229;DHT22;29904;51.058;5.378;2024-01-27T09:21:51;1.90;99.90
44229;DHT22;29904;51.058;5.378;2024-01-27T09:24:17;2.00;99.90
44229;DHT22;29904;51.058;5.378;2024-01-27T09:26:42;2.10;99.90
44229;DHT22;29904;51.058;5.378;2024-01-27T09:29:08;2.10;99.90
44229;DHT22;29904;51.058;5.378;2024-01-27T09:31:34;2.20;99.90
44229;DHT22;29904;51.058;5.378;2024-01-27T09:34:00;2.30;99.90
44229;DHT22;29904;51.058;5.378;2024-01-27T09:36:26;2.40;99.90
44229;DHT22;29904;51.058;5.378;2024-01-27T09:38:51;2.40;99.90
44229;DHT22;29904;51.058;5.378;2024-01-27T09:41:17;2.50;99.90
44229;DHT22;29904;51.058;5.378;2024-01-27T09:43:44;2.70;99.90
44229;DHT22;29904;51.058;5.378;2024-01-27T09:46:11;2.60;99.90
44229;DHT22;29904;51.058;5.378;2024-01-27T09:48:36;2.60;99.90
44229;DHT22;29904;51.058;5.378;2024-01-27T09:51:02;2.80;99.90
44229;DHT22;29904;51.058;5.378;2024-01-27T09:53:28;2.80;99.90
44229;DHT22;29904;51.058;5.378;2024-01-27T09:55:55;2.90;99.90
44229;DHT22;29904;51.058;5.378;2024-01-27T09:58:24;3.00;99.90
44229;DHT22;29904;51.058;5.378;2024-01-27T10:00:51;3.10;99.90
44229;DHT22;29904;51.058;5.378;2024-01-27T10:03:17;3.10;99.90
44229;DHT22;29904;51.058;5.378;2024-01-27T10:05:45;3.10;99.90
44229;DHT22;29904;51.058;5.378;2024-01-27T10:08:11;3.30;99.90
44229;DHT22;29904;51.058;5.378;2024-01-27T10:10:37;3.30;99.90
44229;DHT22;29904;51.058;5.378;2024-01-27T10:13:03;3.40;99.90
44229;DHT22;29904;51.058;5.378;2024-01-27T10:15:29;3.50;99.90
44229;DHT22;29904;51.058;5.378;2024-01-27T10:18:07;3.50;99.90
44229;DHT22;29904;51.058;5.378;2024-01-27T10:20:33;3.60;99.90
44229;DHT22;29904;51.058;5.378;2024-01-27T10:22:59;3.60;99.90
44229;DHT22;29904;51.058;5.378;2024-01-27T10:25:38;3.70;99.90
44229;DHT22;29904;51.058;5.378;2024-01-27T10:28:07;3.70;99.90
44229;DHT22;29904;51.058;5.378;2024-01-27T10:30:34;3.80;99.90
44229;DHT22;29904;51.058;5.378;2024-01-27T10:32:59;3.90;99.90
44229;DHT22;29904;51.058;5.378;2024-01-27T10:35:25;3.90;99.90
44229;DHT22;29904;51.058;5.378;2024-01-27T10:37:52;4.00;99.90
44229;DHT22;29904;51.058;5.378;2024-01-27T10:40:18;4.10;99.90
44229;DHT22;29904;51.058;5.378;2024-01-27T10:42:43;4.10;99.90
44229;DHT22;29904;51.058;5.378;2024-01-27T10:45:09;4.20;99.90
44229;DHT22;29904;51.058;5.378;2024-01-27T10:47:36;4.20;99.90
44229;DHT22;29904;51.058;5.378;2024-01-27T10:50:03;4.30;99.90
44229;DHT22;29904;51.058;5.378;2024-01-27T10:52:33;4.40;99.90
44229;DHT22;29904;51.058;5.378;2024-01-27T10:55:02;4.50;99.90
44229;DHT22;29904;51.058;5.378;2024-01-27T10:57:31;4.60;99.90
44229;DHT22;29904;51.058;5.378;2024-01-27T10:59:58;4.60;99.90
44229;DHT22;29904;51.058;5.378;2024-01-27T11:02:25;4.70;99.90
44229;DHT22;29904;51.058;5.378;2024-01-27T11:04:51;4.80;99.90
44229;DHT22;29904;51.058;5.378;2024-01-27T11:07:20;4.80;99.90
44229;DHT22;29904;51.058;5.378;2024-01-27T11:09:49;4.90;99.90
44229;DHT22;29904;51.058;5.378;2024-01-27T11:12:17;4.90;99.90
44229;DHT22;29904;51.058;5.378;2024-01-27T11:14:42;4.90;99.90
44229;DHT22;29904;51.058;5.378;2024-01-27T11:17:08;5.00;99.90
44229;DHT22;29904;51.058;5.378;2024-01-27T11:19:34;5.10;99.90
44229;DHT22;29904;51.058;5.378;2024-01-27T11:22:03;5.10;99.90
44229;DHT22;29904;51.058;5.378;2024-01-27T11:24:28;5.20;99.90
44229;DHT22;29904;51.058;5.378;2024-01-27T11:27:01;5.30;99.90
44229;DHT22;29904;51.058;5.378;2024-01-27T11:29:27;5.30;99.90
44229;DHT22;29904;51.058;5.378;2024-01-27T11:31:55;5.40;99.90
44229;DHT22;29904;51.058;5.378;2024-01-27T11:34:21;5.40;99.90
44229;DHT22;29904;51.058;5.378;2024-01-27T11:36:47;5.50;99.90
44229;DHT22;29904;51.058;5.378;2024-01-27T11:39:29;5.60;99.90
44229;DHT22;29904;51.058;5.378;2024-01-27T11:42:07;5.60;99.90
44229;DHT22;29904;51.058;5.378;2024-01-27T11:44:36;5.70;99.90
44229;DHT22;29904;51.058;5.378;2024-01-27T11:47:02;5.80;99.90
44229;DHT22;29904;51.058;5.378;2024-01-27T11:49:28;5.90;99.90
44229;DHT22;29904;51.058;5.378;2024-01-27T11:51:54;5.90;99.90
44229;DHT22;29904;51.058;5.378;2024-01-27T11:54:20;6.00;99.90
44229;DHT22;29904;51.058;5.378;2024-01-27T11:56:46;6.10;99.90
44229;DHT22;29904;51.058;5.378;2024-01-27T11:59:11;6.10;99.90
44229;DHT22;29904;51.058;5.378;2024-01-27T12:01:37;6.20;99.90
44229;DHT22;29904;51.058;5.378;2024-01-27T12:04:04;6.20;99.90
44229;DHT22;29904;51.058;5.378;2024-01-27T12:06:30;6.20;99.90
44229;DHT22;29904;51.058;5.378;2024-01-27T12:08:56;6.30;99.90
44229;DHT22;29904;51.058;5.378;2024-01-27T12:11:23;6.30;99.90
44229;DHT22;29904;51.058;5.378;2024-01-27T12:13:49;6.30;99.90
44229;DHT22;29904;51.058;5.378;2024-01-27T12:16:15;6.30;99.90
44229;DHT22;29904;51.058;5.378;2024-01-27T12:18:40;6.40;99.90
44229;DHT22;29904;51.058;5.378;2024-01-27T12:21:06;6.50;99.90
44229;DHT22;29904;51.058;5.378;2024-01-27T12:23:31;6.50;99.90
44229;DHT22;29904;51.058;5.378;2024-01-27T12:25:57;6.60;99.90
44229;DHT22;29904;51.058;5.378;2024-01-27T12:28:23;6.60;99.90
44229;DHT22;29904;51.058;5.378;2024-01-27T12:30:49;6.70;99.90
44229;DHT22;29904;51.058;5.378;2024-01-27T12:33:15;6.70;99.90
44229;DHT22;29904;51.058;5.378;2024-01-27T12:35:45;6.70;99.90
44229;DHT22;29904;51.058;5.378;2024-01-27T12:38:11;6.80;99.90
44229;DHT22;29904;51.058;5.378;2024-01-27T12:40:37;6.80;99.90
44229;DHT22;29904;51.058;5.378;2024-01-27T12:43:03;6.90;99.90
44229;DHT22;29904;51.058;5.378;2024-01-27T12:45:29;6.90;99.90
44229;DHT22;29904;51.058;5.378;2024-01-27T12:47:54;6.90;99.90
44229;DHT22;29904;51.058;5.378;2024-01-27T12:50:20;7.00;99.90
44229;DHT22;29904;51.058;5.378;2024-01-27T12:52:46;7.10;99.90
44229;DHT22;29904;51.058;5.378;2024-01-27T12:55:11;7.10;99.90
44229;DHT22;29904;51.058;5.378;2024-01-27T12:57:37;7.20;99.90
44229;DHT22;29904;51.058;5.378;2024-01-27T13:00:05;7.30;99.90
44229;DHT22;29904;51.058;5.378;2024-01-27T13:02:39;7.40;99.90
44229;DHT22;29904;51.058;5.378;2024-01-27T13:05:04;7.50;99.90
44229;DHT22;29904;51.058;5.378;2024-01-27T13:07:30;7.60;99.90
44229;DHT22;29904;51.058;5.378;2024-01-27T13:09:56;7.60;99.90
44229;DHT22;29904;51.058;5.378;2024-01-27T13:12:22;7.70;99.90
44229;DHT22;29904;51.058;5.378;2024-01-27T13:14:47;7.70;99.90
44229;DHT22;29904;51.058;5.378;2024-01-27T13:17:14;7.80;99.90
44229;DHT22;29904;51.058;5.378;2024-01-27T13:19:40;7.90;99.90
44229;DHT22;29904;51.058;5.378;2024-01-27T13:22:06;7.90;99.90
44229;DHT22;29904;51.058;5.378;2024-01-27T13:24:32;8.00;99.90
44229;DHT22;29904;51.058;5.378;2024-01-27T13:26:57;7.90;99.90
44229;DHT22;29904;51.058;5.378;2024-01-27T13:29:23;7.90;99.90
44229;DHT22;29904;51.058;5.378;2024-01-27T13:31:49;7.90;99.90
44229;DHT22;29904;51.058;5.378;2024-01-27T13:34:15;7.90;99.90
44229;DHT22;29904;51.058;5.378;2024-01-27T13:36:40;7.90;99.90
44229;DHT22;29904;51.058;5.378;2024-01-27T13:39:06;7.90;99.90
44229;DHT22;29904;51.058;5.378;2024-01-27T13:41:32;7.90;99.90
44229;DHT22;29904;51.058;5.378;2024-01-27T13:43:57;7.80;99.90
44229;DHT22;29904;51.058;5.378;2024-01-27T13:46:23;7.80;99.90
44229;DHT22;29904;51.058;5.378;2024-01-27T13:48:48;7.80;99.90
44229;DHT22;29904;51.058;5.378;2024-01-27T13:51:14;7.80;99.90
44229;DHT22;29904;51.058;5.378;2024-01-27T13:53:40;7.80;99.90
44229;DHT22;29904;51.058;5.378;2024-01-27T13:56:06;7.80;99.90
44229;DHT22;29904;51.058;5.378;2024-01-27T13:58:32;7.70;99.90
44229;DHT22;29904;51.058;5.378;2024-01-27T14:00:57;7.70;99.90
44229;DHT22;29904;51.058;5.378;2024-01-27T14:03:23;7.60;99.90
44229;DHT22;29904;51.058;5.378;2024-01-27T14:05:49;7.60;99.90
44229;DHT22;29904;51.058;5.378;2024-01-27T14:08:14;7.70;99.90
44229;DHT22;29904;51.058;5.378;2024-01-27T14:10:40;7.70;99.90
44229;DHT22;29904;51.058;5.378;2024-01-27T14:13:08;7.70;99.90
44229;DHT22;29904;51.058;5.378;2024-01-27T14:15:35;7.70;99.90
44229;DHT22;29904;51.058;5.378;2024-01-27T14:18:01;7.70;99.90
44229;DHT22;29904;51.058;5.378;2024-01-27T14:20:27;7.70;99.90
44229;DHT22;29904;51.058;5.378;2024-01-27T14:22:54;7.70;99.90
44229;DHT22;29904;51.058;5.378;2024-01-27T14:25:20;7.70;99.90
44229;DHT22;29904;51.058;5.378;2024-01-27T14:27:45;7.70;99.90
44229;DHT22;29904;51.058;5.378;2024-01-27T14:30:11;7.60;99.90
44229;DHT22;29904;51.058;5.378;2024-01-27T14:32:38;7.60;99.90
44229;DHT22;29904;51.058;5.378;2024-01-27T14:35:04;7.60;99.90
44229;DHT22;29904;51.058;5.378;2024-01-27T14:37:32;7.60;99.90
44229;DHT22;29904;51.058;5.378;2024-01-27T14:39:57;7.60;99.90
44229;DHT22;29904;51.058;5.378;2024-01-27T14:42:23;7.50;99.90
44229;DHT22;29904;51.058;5.378;2024-01-27T14:44:49;7.50;99.90
44229;DHT22;29904;51.058;5.378;2024-01-27T14:47:16;7.50;99.90
44229;DHT22;29904;51.058;5.378;2024-01-27T14:49:42;7.50;99.90
44229;DHT22;29904;51.058;5.378;2024-01-27T14:52:10;7.40;99.90
44229;DHT22;29904;51.058;5.378;2024-01-27T14:54:37;7.40;99.90
44229;DHT22;29904;51.058;5.378;2024-01-27T14:57:03;7.40;99.90
44229;DHT22;29904;51.058;5.378;2024-01-27T14:59:29;7.40;99.90
44229;DHT22;29904;51.058;5.378;2024-01-27T15:01:55;7.30;99.90
44229;DHT22;29904;51.058;5.378;2024-01-27T15:04:23;7.40;99.90
44229;DHT22;29904;51.058;5.378;2024-01-27T15:06:54;7.30;99.90
44229;DHT22;29904;51.058;5.378;2024-01-27T15:09:20;7.30;99.90
44229;DHT22;29904;51.058;5.378;2024-01-27T15:11:45;7.40;99.90
44229;DHT22;29904;51.058;5.378;2024-01-27T15:14:11;7.30;99.90
44229;DHT22;29904;51.058;5.378;2024-01-27T15:16:37;7.40;99.90
44229;DHT22;29904;51.058;5.378;2024-01-27T15:19:02;7.30;99.90
44229;DHT22;29904;51.058;5.378;2024-01-27T15:21:28;7.30;99.90
44229;DHT22;29904;51.058;5.378;2024-01-27T15:23:55;7.30;99.90
44229;DHT22;29904;51.058;5.378;2024-01-27T15:26:21;7.20;99.90
44229;DHT22;29904;51.058;5.378;2024-01-27T15:28:47;7.20;99.90
44229;DHT22;29904;51.058;5.378;2024-01-27T15:31:13;7.10;99.90